KABQ METAR and TAF | Updated Today

KABQ METAR

Albuquerque International Sunport

Observation time: 13 min. ago

KABQ 301852Z 34004KT 10SM FEW200 13/M04 A3023 RMK AO2 SLP204 T01331044

Need help? Read our tutorial on how to read METARs or read the parsed version below.

Albuquerque International Sunport (KABQ) METAR

  • Weather conditions on Tue, 30 Nov 2021 18:52:00 +0000 (13 min. ago):
  • Present conditions: Dry
  • Clouds: A few at 6096 meters
  • Visibility: 16093 meters
  • Wind: 340 degrees at 4 knots
  • Temperature: 13 celsius
  • Dew point: -4 celsius
  • Pressure: 30.23 inHg
  • Remarks: AO2 SLP204 T01331044


Useful to know...

KABQ TAF

Albuquerque International Sunport

KABQ 301738Z 3018/0118 35006KT P6SM SKC FM302100 VRB04KT P6SM SKC FM010700 01007KT P6SM SKC
Observation time: 87 min. ago
Need help? Read our tutorial on how to read TAFs or read the parsed version below.

Parsed version of TAF for Albuquerque International Sunport (KABQ)

  • From 30 November at 18:00 UTC, to day 01 of the month at 18:00 UTC
  • Clouds: No significant changes expected
  • Wind: 350 degrees at 6
  • From day 30 of the month at 21:00 UTC
  • Clouds: No significant changes expected
  • Wind: Variable at 4
  • From day 1 of the month at 07:00 UTC
  • Clouds: No significant changes expected
  • Wind: 10 degrees at 7